createdAt,value
2022-09-05T00:01:43.177Z,99.90
2022-09-05T00:05:09.791Z,99.90
2022-09-05T00:08:27.321Z,99.90
2022-09-05T00:11:53.863Z,99.90
2022-09-05T00:15:16.854Z,99.90
2022-09-05T00:24:17.193Z,99.90
2022-09-05T00:24:29.712Z,99.90
2022-09-05T00:25:53.099Z,99.90
2022-09-05T00:29:20.418Z,99.90
2022-09-05T00:33:17.345Z,99.90
2022-09-05T00:36:29.241Z,99.90
2022-09-05T00:39:36.209Z,99.90
2022-09-05T00:42:38.353Z,99.90
2022-09-05T00:46:01.966Z,99.90
2022-09-05T00:49:49.017Z,99.90
2022-09-05T00:53:07.266Z,99.90
2022-09-05T00:56:47.021Z,99.90
2022-09-05T01:00:11.682Z,99.90
2022-09-05T01:03:35.064Z,99.90
2022-09-05T01:07:14.638Z,99.90
2022-09-05T01:10:42.879Z,99.90
2022-09-05T01:14:00.511Z,99.90
2022-09-05T01:17:27.418Z,99.90
2022-09-05T01:20:48.040Z,99.90
2022-09-05T01:24:07.207Z,99.90
2022-09-05T01:27:35.182Z,99.90
2022-09-05T01:31:10.139Z,99.90
2022-09-05T01:34:41.788Z,99.90
2022-09-05T01:38:17.468Z,99.90
2022-09-05T01:41:38.122Z,99.90
2022-09-05T01:44:59.207Z,99.90
2022-09-05T01:48:07.117Z,99.90
2022-09-05T01:51:31.727Z,99.90
2022-09-05T01:54:51.173Z,99.90
2022-09-05T01:58:12.088Z,99.90
2022-09-05T02:01:32.970Z,99.90
2022-09-05T02:04:58.721Z,99.90
2022-09-05T02:08:15.020Z,99.90
2022-09-05T02:11:36.109Z,99.90
2022-09-05T02:15:00.017Z,99.90
2022-09-05T02:18:06.468Z,99.90
2022-09-05T02:21:23.873Z,99.90
2022-09-05T02:24:34.968Z,99.90
2022-09-05T02:28:20.512Z,99.90
2022-09-05T02:31:44.624Z,99.90
2022-09-05T02:35:19.247Z,99.90
2022-09-05T02:39:34.907Z,99.90
2022-09-05T02:45:12.356Z,99.90
2022-09-05T02:45:44.896Z,99.90
2022-09-05T02:49:13.976Z,99.90
2022-09-05T02:57:33.104Z,99.90
2022-09-05T02:57:35.419Z,99.90
2022-09-05T03:00:07.748Z,99.90
2022-09-05T03:03:54.292Z,99.90
2022-09-05T03:06:56.205Z,99.90
2022-09-05T03:10:16.779Z,99.90
2022-09-05T03:13:24.529Z,99.90
2022-09-05T03:17:01.715Z,99.90
2022-09-05T03:20:38.670Z,99.90
2022-09-05T03:24:00.802Z,99.90
2022-09-05T03:27:22.324Z,99.90
2022-09-05T03:30:52.558Z,99.90
2022-09-05T03:34:30.032Z,99.90
2022-09-05T03:37:55.508Z,99.90
2022-09-05T03:41:04.912Z,99.90
2022-09-05T03:44:25.199Z,99.90
2022-09-05T03:48:01.694Z,99.90
2022-09-05T03:56:20.860Z,99.90
2022-09-05T03:57:25.241Z,99.90
2022-09-05T03:58:55.879Z,99.90
2022-09-05T04:02:45.104Z,99.90
2022-09-05T04:08:14.138Z,99.90
2022-09-05T04:09:03.993Z,99.90
2022-09-05T04:12:17.881Z,99.90
2022-09-05T04:15:37.074Z,99.90
2022-09-05T04:18:45.066Z,99.90
2022-09-05T04:21:56.179Z,99.90
2022-09-05T04:25:16.330Z,99.90
2022-09-05T04:28:27.108Z,99.90
2022-09-05T04:31:34.771Z,99.90
2022-09-05T04:35:11.796Z,99.90
2022-09-05T04:38:14.943Z,99.90
2022-09-05T04:41:37.627Z,99.90
2022-09-05T04:44:55.843Z,99.90
2022-09-05T04:48:02.832Z,99.90
2022-09-05T04:51:11.606Z,99.90
2022-09-05T04:54:47.954Z,99.90
2022-09-05T04:57:58.946Z,99.90
2022-09-05T05:06:05.268Z,99.90
2022-09-05T05:06:11.745Z,99.90
2022-09-05T05:08:28.956Z,99.90
2022-09-05T05:17:54.187Z,99.90
2022-09-05T05:18:16.390Z,99.90
2022-09-05T05:19:26.226Z,99.90
2022-09-05T05:22:28.752Z,99.90
2022-09-05T05:25:40.601Z,99.90
2022-09-05T05:28:54.614Z,99.90
2022-09-05T05:32:02.435Z,99.90
2022-09-05T05:35:31.821Z,99.90
2022-09-05T05:38:48.334Z,99.90
2022-09-05T05:42:05.323Z,99.90
2022-09-05T05:45:28.985Z,99.90
2022-09-05T05:48:35.512Z,99.90
2022-09-05T05:52:13.934Z,99.90
2022-09-05T05:55:50.510Z,99.90
2022-09-05T05:59:03.030Z,99.90
2022-09-05T06:02:37.038Z,99.90
2022-09-05T06:06:08.316Z,99.90
2022-09-05T06:14:49.583Z,99.90
2022-09-05T06:15:01.623Z,99.90
2022-09-05T06:16:56.407Z,99.90
2022-09-05T06:22:06.675Z,99.90
2022-09-05T06:24:12.411Z,99.90
2022-09-05T06:28:17.378Z,99.90
2022-09-05T06:31:33.717Z,99.90
2022-09-05T06:34:43.924Z,99.90
2022-09-05T06:37:51.438Z,99.90
2022-09-05T06:41:21.623Z,99.90
2022-09-05T06:45:07.866Z,99.90
2022-09-05T06:48:44.267Z,99.90
2022-09-05T06:52:28.445Z,99.90
2022-09-05T06:56:07.173Z,99.90
2022-09-05T06:59:34.335Z,99.90
2022-09-05T07:03:00.593Z,99.90
2022-09-05T07:06:41.391Z,98.40
2022-09-05T07:10:16.688Z,98.00
2022-09-05T07:14:01.604Z,98.30
2022-09-05T07:17:24.302Z,95.10
2022-09-05T07:21:16.427Z,94.50
2022-09-05T07:24:12.940Z,94.20
2022-09-05T07:27:33.378Z,93.10
2022-09-05T07:30:53.626Z,93.00
2022-09-05T07:34:21.320Z,92.10
2022-09-05T07:37:37.209Z,92.40
2022-09-05T07:40:55.822Z,90.40
2022-09-05T07:44:11.179Z,88.10
2022-09-05T07:47:26.262Z,87.00
2022-09-05T07:54:30.037Z,85.80
2022-09-05T07:57:05.037Z,78.50
2022-09-05T07:57:32.530Z,82.80
2022-09-05T08:00:53.193Z,81.00
2022-09-05T08:04:00.409Z,78.00
2022-09-05T08:07:48.832Z,80.20
2022-09-05T08:11:24.066Z,79.20
2022-09-05T08:14:44.532Z,76.50
2022-09-05T08:18:12.875Z,77.10
2022-09-05T08:21:27.066Z,73.90
2022-09-05T08:24:46.908Z,73.20
2022-09-05T08:28:00.801Z,70.60
2022-09-05T08:31:09.333Z,69.90
2022-09-05T08:34:24.833Z,69.80
2022-09-05T08:37:44.314Z,69.50
2022-09-05T08:40:55.470Z,68.80
2022-09-05T08:46:41.707Z,68.70
2022-09-05T08:48:15.207Z,68.10
2022-09-05T08:51:41.165Z,65.60
2022-09-05T08:55:07.462Z,65.20
2022-09-05T08:58:30.463Z,64.60
2022-09-05T09:02:46.038Z,64.40
2022-09-05T09:06:12.602Z,65.50
2022-09-05T09:09:34.083Z,63.70
2022-09-05T09:13:03.850Z,63.30
2022-09-05T09:16:08.148Z,65.00
2022-09-05T09:19:18.667Z,62.70
2022-09-05T09:22:39.580Z,64.50
2022-09-05T09:26:18.374Z,62.00
2022-09-05T09:29:21.903Z,63.70
2022-09-05T09:32:26.910Z,63.20
2022-09-05T09:35:41.429Z,62.60
2022-09-05T09:39:11.920Z,60.80
2022-09-05T09:42:57.451Z,61.80
2022-09-05T09:46:10.664Z,61.50
2022-09-05T09:49:53.737Z,59.30
2022-09-05T09:53:15.017Z,60.10
2022-09-05T09:56:29.022Z,60.00
2022-09-05T09:59:33.732Z,60.50
2022-09-05T10:05:33.911Z,59.00
2022-09-05T10:10:45.729Z,60.40
2022-09-05T10:11:08.800Z,59.10
2022-09-05T10:13:47.297Z,58.80
2022-09-05T10:17:28.020Z,58.80
2022-09-05T10:20:57.906Z,57.00
2022-09-05T10:24:36.757Z,57.50
2022-09-05T10:28:00.471Z,56.70
2022-09-05T10:33:19.943Z,56.80
2022-09-05T10:35:24.598Z,56.40
2022-09-05T10:38:40.399Z,56.30
2022-09-05T10:42:06.951Z,57.00
2022-09-05T10:45:34.279Z,55.50
2022-09-05T10:48:53.644Z,55.80
2022-09-05T10:52:19.007Z,56.40
2022-09-05T10:55:26.365Z,58.30
2022-09-05T11:01:22.054Z,54.00
2022-09-05T11:02:36.722Z,55.80
2022-09-05T11:05:57.335Z,57.00
2022-09-05T11:09:07.007Z,56.80
2022-09-05T11:12:44.353Z,57.10
2022-09-05T11:16:04.333Z,59.00
2022-09-05T11:19:19.739Z,56.40
2022-09-05T11:22:24.605Z,57.70
2022-09-05T11:25:40.614Z,56.50
2022-09-05T11:29:00.045Z,56.30
2022-09-05T11:39:56.620Z,56.10
2022-09-05T11:39:59.503Z,58.40
2022-09-05T11:40:01.996Z,58.10
2022-09-05T11:43:28.272Z,56.20
2022-09-05T11:46:54.885Z,55.30
2022-09-05T11:50:22.154Z,53.60
2022-09-05T11:53:42.827Z,55.90
2022-09-05T11:57:21.662Z,55.50
2022-09-05T12:00:42.126Z,55.50
2022-09-05T12:04:16.796Z,55.30
2022-09-05T12:07:31.992Z,55.50
2022-09-05T12:10:53.719Z,55.80
2022-09-05T12:14:25.320Z,55.10
2022-09-05T12:17:52.783Z,51.40
2022-09-05T12:21:24.237Z,54.80
2022-09-05T12:25:25.230Z,53.40
2022-09-05T12:29:27.475Z,53.40
2022-09-05T12:33:03.364Z,53.20
2022-09-05T12:36:13.387Z,54.50
2022-09-05T12:40:21.335Z,53.50
2022-09-05T12:42:40.126Z,54.10
2022-09-05T12:45:58.150Z,53.90
2022-09-05T12:49:11.105Z,54.80
2022-09-05T12:52:20.153Z,54.00
2022-09-05T12:55:32.527Z,52.60
2022-09-05T13:03:07.649Z,52.60
2022-09-05T13:03:08.605Z,54.50
2022-09-05T13:05:52.159Z,53.50
2022-09-05T13:09:17.555Z,54.80
2022-09-05T13:15:03.005Z,55.80
2022-09-05T13:15:53.798Z,54.30
2022-09-05T13:19:10.078Z,53.80
2022-09-05T13:22:17.432Z,54.30
2022-09-05T13:25:27.188Z,53.20
2022-09-05T13:28:41.580Z,53.30
2022-09-05T13:38:00.926Z,53.30
2022-09-05T13:38:29.397Z,53.30
2022-09-05T13:39:14.039Z,53.80
2022-09-05T13:42:22.752Z,54.20
2022-09-05T13:45:27.053Z,54.00
2022-09-05T13:52:34.081Z,54.00
2022-09-05T13:56:02.991Z,55.20
2022-09-05T13:59:11.068Z,56.10
2022-09-05T14:02:27.820Z,56.30
2022-09-05T14:06:46.338Z,56.00
2022-09-05T14:09:58.540Z,56.60
2022-09-05T14:13:24.505Z,57.30
2022-09-05T14:16:33.939Z,56.70
2022-09-05T14:20:14.750Z,56.60
2022-09-05T14:23:18.525Z,56.80
2022-09-05T14:26:47.775Z,55.40
2022-09-05T14:29:56.643Z,53.20
2022-09-05T14:37:46.010Z,56.00
2022-09-05T14:37:49.770Z,56.60
2022-09-05T14:41:05.055Z,57.10
2022-09-05T14:44:09.578Z,57.40
2022-09-05T14:47:47.546Z,58.30
2022-09-05T14:50:52.556Z,59.50
2022-09-05T14:54:10.300Z,60.00
2022-09-05T15:02:39.148Z,61.10
2022-09-05T15:03:00.903Z,60.10
2022-09-05T15:04:41.007Z,63.40
2022-09-05T15:07:50.293Z,64.80
2022-09-05T15:12:25.203Z,65.30
2022-09-05T15:14:29.167Z,63.30
2022-09-05T15:17:32.776Z,60.00
2022-09-05T15:20:43.927Z,64.70
2022-09-05T15:24:17.533Z,66.80
2022-09-05T15:27:20.060Z,67.10
2022-09-05T15:30:35.869Z,67.90
2022-09-05T15:33:40.868Z,68.90
2022-09-05T15:36:42.962Z,69.10
2022-09-05T15:39:44.905Z,70.00
2022-09-05T15:42:56.998Z,70.90
2022-09-05T15:46:03.832Z,71.80
2022-09-05T16:02:00.486Z,70.60
2022-09-05T16:10:33.858Z,73.80
2022-09-05T16:10:38.773Z,73.20
2022-09-05T16:12:17.039Z,73.80
2022-09-05T16:19:06.508Z,74.30
2022-09-05T16:23:14.503Z,76.60
2022-09-05T16:23:29.335Z,73.70
2022-09-05T16:26:25.456Z,73.70
2022-09-05T16:29:30.962Z,73.50
2022-09-05T16:32:36.857Z,75.20
2022-09-05T16:36:12.879Z,75.80
2022-09-05T16:39:23.993Z,76.30
2022-09-05T16:42:45.960Z,76.90
2022-09-05T16:46:10.992Z,77.60
2022-09-05T16:49:19.382Z,81.90
2022-09-05T16:52:53.698Z,84.00
2022-09-05T16:56:04.653Z,85.50
2022-09-05T16:59:20.778Z,86.90
2022-09-05T17:02:32.146Z,87.60
2022-09-05T17:05:39.721Z,88.70
2022-09-05T17:08:41.697Z,89.20
2022-09-05T17:12:00.110Z,90.10
2022-09-05T17:15:08.877Z,90.70
2022-09-05T17:18:24.239Z,91.20
2022-09-05T17:24:38.719Z,91.60
2022-09-05T17:29:26.019Z,92.00
2022-09-05T17:29:42.135Z,92.20
2022-09-05T17:32:21.915Z,92.40
2022-09-05T17:35:33.241Z,92.50
2022-09-05T17:39:11.575Z,92.60
2022-09-05T17:42:42.415Z,92.70
2022-09-05T17:45:54.207Z,92.90
2022-09-05T17:49:19.356Z,93.00
2022-09-05T17:52:23.363Z,93.30
2022-09-05T17:55:40.448Z,93.70
2022-09-05T17:59:24.666Z,94.00
2022-09-05T18:02:26.661Z,94.50
2022-09-05T18:05:57.483Z,95.00
2022-09-05T18:09:09.033Z,95.20
2022-09-05T18:13:11.968Z,95.40
2022-09-05T18:16:11.204Z,95.60
2022-09-05T18:19:33.015Z,95.90
2022-09-05T18:22:44.078Z,96.40
2022-09-05T18:25:51.660Z,96.50
2022-09-05T18:29:08.018Z,96.70
2022-09-05T18:32:39.363Z,96.60
2022-09-05T18:36:25.842Z,96.70
2022-09-05T18:39:39.030Z,97.00
2022-09-05T18:42:43.567Z,97.40
2022-09-05T18:45:52.870Z,97.30
2022-09-05T18:50:21.963Z,97.40
2022-09-05T18:52:48.976Z,97.50
2022-09-05T18:56:21.103Z,97.60
2022-09-05T18:59:41.564Z,97.80
2022-09-05T19:02:58.816Z,98.00
2022-09-05T19:06:37.050Z,98.10
2022-09-05T19:09:35.746Z,98.80
2022-09-05T19:12:53.299Z,99.80
2022-09-05T19:16:21.084Z,98.90
2022-09-05T19:19:27.955Z,99.00
2022-09-05T19:23:08.420Z,99.30
2022-09-05T19:26:09.635Z,99.50
2022-09-05T19:36:55.956Z,99.60
2022-09-05T19:36:59.060Z,99.60
2022-09-05T19:37:03.447Z,99.90
2022-09-05T19:43:14.259Z,99.90
2022-09-05T19:47:28.746Z,99.90
2022-09-05T19:47:52.054Z,99.90
2022-09-05T19:50:09.378Z,99.90
2022-09-05T19:53:15.362Z,99.90
2022-09-05T19:56:18.541Z,99.90
2022-09-05T19:59:24.110Z,99.90
2022-09-05T20:02:33.244Z,99.90
2022-09-05T20:05:40.514Z,99.90
2022-09-05T20:08:42.695Z,99.90
2022-09-05T20:11:52.971Z,99.90
2022-09-05T20:14:55.590Z,99.90
2022-09-05T20:18:17.708Z,99.90
2022-09-05T20:21:30.416Z,99.90
2022-09-05T20:24:33.866Z,99.90
2022-09-05T20:27:36.424Z,99.90
2022-09-05T20:30:46.346Z,99.90
2022-09-05T20:34:19.239Z,99.90
2022-09-05T20:43:19.453Z,99.90
2022-09-05T20:43:24.590Z,99.90
2022-09-05T20:44:24.853Z,99.90
2022-09-05T20:54:07.425Z,99.90
2022-09-05T20:54:19.904Z,99.90
2022-09-05T20:54:34.947Z,99.90
2022-09-05T20:57:41.754Z,99.90
2022-09-05T21:01:21.163Z,99.90
2022-09-05T21:04:09.163Z,99.90
2022-09-05T21:07:19.620Z,99.90
2022-09-05T21:10:27.801Z,99.90
2022-09-05T21:13:45.407Z,99.90
2022-09-05T21:17:04.854Z,99.90
2022-09-05T21:20:23.053Z,99.90
2022-09-05T21:23:28.160Z,99.90
2022-09-05T21:26:30.996Z,99.90
2022-09-05T21:29:33.707Z,99.90
2022-09-05T21:32:41.569Z,99.90
2022-09-05T21:35:45.894Z,99.90
2022-09-05T21:38:47.855Z,99.90
2022-09-05T21:41:59.430Z,99.90
2022-09-05T21:47:43.541Z,99.90
2022-09-05T21:48:37.022Z,99.90
2022-09-05T21:51:39.067Z,99.90
2022-09-05T21:59:14.862Z,99.90
2022-09-05T21:59:20.125Z,99.90
2022-09-05T22:01:50.994Z,99.90
2022-09-05T22:04:54.146Z,99.90
2022-09-05T22:07:56.180Z,99.90
2022-09-05T22:10:58.132Z,99.90
2022-09-05T22:14:00.100Z,99.90
2022-09-05T22:17:04.939Z,99.90
2022-09-05T22:20:10.649Z,99.90
2022-09-05T22:23:13.089Z,99.90
2022-09-05T22:26:17.016Z,99.90
2022-09-05T22:29:19.003Z,99.90
2022-09-05T22:32:33.872Z,99.90
2022-09-05T22:35:39.280Z,99.90
2022-09-05T22:38:44.156Z,99.90
2022-09-05T22:41:46.122Z,99.90
2022-09-05T22:44:48.259Z,99.90
2022-09-05T22:47:50.248Z,99.90
2022-09-05T22:50:52.421Z,99.90
2022-09-05T22:53:54.373Z,99.90
2022-09-05T22:56:56.254Z,99.90
2022-09-05T22:59:58.145Z,99.90
2022-09-05T23:03:01.455Z,99.90
2022-09-05T23:06:07.263Z,99.90
2022-09-05T23:09:09.892Z,99.90
2022-09-05T23:12:11.863Z,99.90
2022-09-05T23:15:13.928Z,99.90
2022-09-05T23:18:16.384Z,99.90
2022-09-05T23:21:19.855Z,99.90
2022-09-05T23:24:23.036Z,99.90
2022-09-05T23:27:24.957Z,99.90
2022-09-05T23:30:26.911Z,99.90
2022-09-05T23:33:29.742Z,99.90
2022-09-05T23:36:31.665Z,99.90
2022-09-05T23:39:33.601Z,99.90
2022-09-05T23:57:40.533Z,99.90
